Time;durP1;ratioP1;P1;durP2;ratioP2;P2;SDS_P1;SDS_P2;PMS_P1;PMS_P2;Temp;Humidity;BMP_temperature;BMP_pressure;BME280_temperature;BME280_humidity;BME280_pressure;Samples;Min_cycle;Max_cycle;Signal;HPM_P1;HPM_P2
2023/08/08 00:00:03;;;;;;;4.83;2.30;;;16.40;80.50;;;19.21;52.36;100945.31;5035634;28;20337;-62
2023/08/08 00:02:31;;;;;;;6.23;2.07;;;16.40;80.40;;;19.23;52.48;100946.72;5036080;28;20206;-63
2023/08/08 00:04:58;;;;;;;4.20;2.00;;;16.40;80.80;;;19.24;52.36;100942.22;5036218;28;20206;-63
2023/08/08 00:07:25;;;;;;;4.60;2.13;;;16.40;80.90;;;19.26;52.54;100948.94;5036266;28;20594;-64
2023/08/08 00:09:52;;;;;;;4.53;1.97;;;16.40;81.20;;;19.26;52.64;100935.59;5035938;28;20278;-64
2023/08/08 00:12:19;;;;;;;2.67;2.00;;;16.40;80.90;;;19.26;52.71;100934.78;5036420;28;20194;-62
2023/08/08 00:14:47;;;;;;;2.33;1.90;;;16.40;81.30;;;19.24;52.86;100928.88;5036153;28;20201;-64
2023/08/08 00:17:14;;;;;;;5.30;2.50;;;16.50;81.40;;;19.25;52.72;100949.19;5036143;28;20198;-64
2023/08/08 00:19:41;;;;;;;7.13;2.77;;;16.40;81.50;;;19.26;52.84;100950.78;5035953;28;20217;-64
2023/08/08 00:22:08;;;;;;;2.93;1.90;;;16.50;81.80;;;19.29;53.05;100947.69;5035617;28;20282;-64
2023/08/08 00:24:35;;;;;;;4.47;2.20;;;16.50;81.90;;;19.31;53.01;100942.94;5035890;28;20273;-64
2023/08/08 00:27:03;;;;;;;2.93;2.00;;;16.40;81.70;;;19.34;52.96;100945.16;5035727;28;20190;-64
2023/08/08 00:29:30;;;;;;;4.63;2.07;;;16.50;81.80;;;19.37;53.10;100942.06;5035030;28;20297;-63
2023/08/08 00:31:59;;;;;;;2.53;1.80;;;16.50;81.90;;;19.37;52.86;100947.41;5035836;28;20264;-65
2023/08/08 00:34:26;;;;;;;2.77;1.63;;;16.50;82.00;;;19.38;53.04;100939.16;5035626;28;20238;-64
2023/08/08 00:36:53;;;;;;;6.77;2.13;;;16.50;82.10;;;19.40;53.07;100949.59;5034596;28;20218;-63
2023/08/08 00:39:20;;;;;;;3.33;2.27;;;16.50;82.30;;;19.36;53.21;100943.09;5035022;28;20252;-64
2023/08/08 00:41:47;;;;;;;4.63;2.10;;;16.50;82.40;;;19.33;53.42;100941.66;5035327;28;20285;-63
2023/08/08 00:44:14;;;;;;;2.70;1.83;;;16.50;82.50;;;19.32;53.64;100937.38;5035481;28;20278;-64
2023/08/08 00:46:42;;;;;;;3.00;2.03;;;16.50;82.80;;;19.32;53.66;100936.56;5035418;28;20186;-63
2023/08/08 00:49:11;;;;;;;3.43;2.03;;;16.50;82.80;;;19.35;53.39;100933.44;5034101;28;20313;-63
2023/08/08 00:51:38;;;;;;;2.10;1.90;;;16.50;82.90;;;19.36;53.59;100930.56;5035079;28;20219;-63
2023/08/08 00:54:06;;;;;;;2.30;2.07;;;16.50;83.00;;;19.37;53.35;100926.06;5035594;28;20198;-62
2023/08/08 00:56:33;;;;;;;3.37;2.20;;;16.50;82.90;;;19.37;53.78;100926.84;5035145;28;20193;-62
2023/08/08 00:59:00;;;;;;;3.27;2.17;;;16.50;83.00;;;19.37;53.53;100923.38;5034851;28;20193;-63
2023/08/08 01:01:27;;;;;;;3.40;1.90;;;16.50;83.20;;;19.36;53.79;100924.41;5035296;28;20597;-63
2023/08/08 01:03:54;;;;;;;3.90;2.80;;;16.50;83.10;;;19.37;53.76;100921.50;5025720;28;20214;-62
2023/08/08 01:06:35;;;;;;;4.07;2.10;;;16.50;83.50;;;19.33;54.14;100925.66;5015145;28;20191;-62
2023/08/08 01:09:12;;;;;;;5.17;2.43;;;16.50;83.50;;;19.34;54.10;100926.47;5022415;28;20194;-61
2023/08/08 01:11:41;;;;;;;3.80;2.20;;;16.50;83.70;;;19.35;53.84;100923.56;5034675;28;20190;-63
2023/08/08 01:14:10;;;;;;;4.97;2.40;;;16.50;83.60;;;19.36;53.88;100919.06;5034742;28;20195;-62
2023/08/08 01:16:39;;;;;;;2.27;1.97;;;16.50;83.60;;;19.36;54.13;100916.41;5034788;28;20197;-62
2023/08/08 01:19:09;;;;;;;4.70;2.20;;;16.60;83.50;;;19.39;54.20;100918.63;5034392;28;20278;-62
2023/08/08 01:21:40;;;;;;;3.47;2.10;;;16.50;83.80;;;19.39;54.31;100911.44;5034774;28;20193;-62
2023/08/08 01:24:18;;;;;;;4.77;2.13;;;16.50;83.90;;;19.40;53.99;100909.56;5034748;28;20386;-62
2023/08/08 01:26:46;;;;;;;2.00;1.80;;;16.50;84.00;;;19.44;54.14;100910.75;5034820;28;20190;-61
2023/08/08 01:29:13;;;;;;;3.63;1.90;;;16.50;84.10;;;19.47;54.08;100915.63;5034189;28;20191;-61
2023/08/08 01:31:41;;;;;;;2.67;2.30;;;16.60;84.20;;;19.49;54.21;100908.22;5034648;28;20182;-61
2023/08/08 01:34:08;;;;;;;6.83;2.63;;;16.60;84.10;;;19.48;53.99;100911.91;5034532;28;20189;-63
2023/08/08 01:36:46;;;;;;;6.77;2.50;;;16.60;84.10;;;19.45;54.38;100904.34;5034273;28;20190;-62
2023/08/08 01:39:19;;;;;;;4.77;2.47;;;16.60;84.00;;;19.46;54.06;100914.00;5034098;28;20273;-63
2023/08/08 01:41:48;;;;;;;3.37;2.13;;;16.60;84.20;;;19.48;54.03;100907.41;5034323;28;20203;-63
2023/08/08 01:44:17;;;;;;;3.33;1.90;;;16.60;84.10;;;19.51;54.05;100906.94;5033969;28;20202;-63
2023/08/08 01:46:45;;;;;;;6.90;2.80;;;16.60;83.90;;;19.54;54.19;100894.97;5034446;28;20190;-65
2023/08/08 01:49:12;;;;;;;4.03;2.50;;;16.60;84.00;;;19.53;54.38;100896.03;5033600;28;20221;-64
2023/08/08 01:51:39;;;;;;;2.13;1.83;;;16.70;84.20;;;19.55;54.10;100902.75;5033964;28;20289;-63
2023/08/08 01:54:06;;;;;;;5.30;2.37;;;16.60;84.10;;;19.57;53.92;100899.84;5035717;28;20202;-64
2023/08/08 01:56:34;;;;;;;4.20;2.20;;;16.70;84.20;;;19.60;54.07;100891.41;5037144;28;20195;-63
2023/08/08 01:59:01;;;;;;;5.03;2.27;;;16.70;84.30;;;19.62;54.20;100908.00;5033371;28;20257;-63
2023/08/08 02:01:28;;;;;;;4.57;2.30;;;16.70;84.20;;;19.65;54.23;100906.72;5033923;28;20218;-62
2023/08/08 02:03:55;;;;;;;3.43;2.33;;;16.70;84.20;;;19.66;53.69;100903.81;5024948;28;20199;-63
2023/08/08 02:06:23;;;;;;;3.17;2.13;;;16.80;84.10;;;19.68;54.14;100896.41;5014342;28;20213;-63
2023/08/08 02:08:50;;;;;;;5.47;2.80;;;16.80;84.20;;;19.71;53.86;100895.09;5018568;28;20194;-64
2023/08/08 02:11:17;;;;;;;3.30;2.27;;;16.80;84.10;;;19.70;54.01;100888.97;5033895;28;20253;-63
2023/08/08 02:13:45;;;;;;;6.77;2.70;;;16.80;83.90;;;19.70;54.04;100891.66;5032998;28;20217;-62
2023/08/08 02:16:13;;;;;;;3.40;2.20;;;16.80;84.10;;;19.71;53.68;100901.28;5034124;28;20198;-61
2023/08/08 02:18:41;;;;;;;3.20;2.60;;;16.80;84.00;;;19.71;54.00;100890.59;5033744;28;20205;-64
2023/08/08 02:21:08;;;;;;;2.97;2.37;;;16.80;84.00;;;19.72;54.11;100884.22;5033651;28;20281;-63
2023/08/08 02:23:35;;;;;;;4.20;2.17;;;16.80;84.20;;;19.71;54.00;100881.75;5033898;28;20249;-63
2023/08/08 02:26:02;;;;;;;3.43;2.53;;;16.80;84.20;;;19.71;54.04;100889.75;5033619;28;20193;-62
2023/08/08 02:28:29;;;;;;;3.63;2.37;;;16.80;84.20;;;19.67;53.89;100876.06;5033061;28;20187;-63
2023/08/08 02:30:57;;;;;;;6.30;2.93;;;16.80;84.20;;;19.61;54.37;100879.69;5033474;28;20245;-62
2023/08/08 02:33:24;;;;;;;3.63;2.47;;;16.80;84.40;;;19.59;54.55;100881.75;5033597;28;20273;-62
2023/08/08 02:35:52;;;;;;;4.37;2.53;;;16.80;84.50;;;19.58;54.42;100885.47;5033739;28;20191;-63
2023/08/08 02:38:19;;;;;;;3.37;2.77;;;16.70;84.40;;;19.58;54.25;100893.47;5033684;28;20281;-63
2023/08/08 02:40:46;;;;;;;3.50;2.90;;;16.70;84.70;;;19.58;54.33;100890.81;5033465;28;20297;-62
2023/08/08 02:43:13;;;;;;;4.57;3.03;;;16.70;84.80;;;19.55;54.58;100885.91;5033418;28;20202;-62
2023/08/08 02:45:40;;;;;;;2.63;2.43;;;16.70;85.10;;;19.51;54.42;100884.75;5018297;28;20191;-62
2023/08/08 02:48:08;;;;;;;5.30;3.10;;;16.70;85.10;;;19.50;54.67;100875.09;5013947;28;20195;-62
2023/08/08 02:50:35;;;;;;;3.10;2.80;;;16.60;85.20;;;19.48;54.84;100864.66;5031090;28;20222;-63
2023/08/08 02:53:03;;;;;;;3.80;2.60;;;16.60;85.20;;;19.48;54.64;100864.66;5033363;28;20252;-62
2023/08/08 02:55:30;;;;;;;3.80;2.70;;;16.60;85.30;;;19.48;54.76;100859.34;5033486;28;20214;-62
2023/08/08 02:57:57;;;;;;;3.00;2.80;;;16.60;85.50;;;19.46;55.02;100855.25;5033196;28;20202;-63
2023/08/08 03:00:24;;;;;;;4.67;2.80;;;16.60;85.50;;;19.44;54.86;100857.34;5032687;28;20210;-62
2023/08/08 03:02:51;;;;;;;3.00;2.70;;;16.60;85.60;;;19.43;55.25;100855.72;5033086;28;20201;-62
2023/08/08 03:05:19;;;;;;;5.13;2.87;;;16.60;85.60;;;19.43;54.99;100855.72;5033140;28;20206;-61
2023/08/08 03:07:46;;;;;;;3.50;2.43;;;16.60;85.70;;;19.45;55.02;100853.63;5033415;28;20243;-63
2023/08/08 03:10:14;;;;;;;6.87;3.40;;;16.60;85.80;;;19.44;55.06;100852.00;5032700;28;20218;-63
2023/08/08 03:12:41;;;;;;;4.67;2.70;;;16.60;85.90;;;19.45;55.15;100848.28;5037171;28;20193;-63
2023/08/08 03:15:10;;;;;;;5.17;3.10;;;16.60;86.10;;;19.46;55.03;100839.25;5037078;28;20726;-63
2023/08/08 03:17:38;;;;;;;6.80;3.00;;;16.60;86.20;;;19.49;55.44;100846.81;5036922;28;20198;-63
2023/08/08 03:20:06;;;;;;;4.30;2.87;;;16.60;86.20;;;19.51;55.10;100850.06;5036700;28;20225;-63
2023/08/08 03:22:35;;;;;;;5.23;2.90;;;16.60;86.10;;;19.51;55.10;100840.19;5036670;28;20621;-63
2023/08/08 03:25:04;;;;;;;3.30;3.00;;;16.60;86.30;;;19.53;55.35;100839.94;5036734;28;20195;-63
2023/08/08 03:27:31;;;;;;;3.57;2.60;;;16.60;86.20;;;19.55;55.16;100832.50;5036868;28;20194;-65
2023/08/08 03:29:58;;;;;;;3.50;2.50;;;16.70;86.40;;;19.54;55.24;100836.22;5036380;28;20222;-63
2023/08/08 03:32:25;;;;;;;3.87;2.60;;;16.70;86.30;;;19.54;55.07;100837.03;5036843;28;20269;-63
2023/08/08 03:34:52;;;;;;;2.87;2.67;;;16.70;86.40;;;19.56;55.22;100834.16;5036536;28;20244;-62
2023/08/08 03:37:19;;;;;;;4.40;3.50;;;16.70;86.30;;;19.59;55.30;100829.16;5028974;28;20249;-63
2023/08/08 03:39:47;;;;;;;4.37;2.93;;;16.70;86.80;;;19.61;55.28;100836.13;5015555;28;20819;-63
2023/08/08 03:42:15;;;;;;;4.33;2.70;;;16.70;86.80;;;19.60;55.27;100827.28;5016252;28;20211;-63
2023/08/08 03:44:42;;;;;;;6.13;2.80;;;16.70;86.80;;;19.61;55.49;100831.59;5023701;28;20198;-62
2023/08/08 03:47:09;;;;;;;4.10;3.47;;;16.70;86.90;;;19.61;55.51;100836.94;5035986;28;20607;-63
2023/08/08 03:49:46;;;;;;;3.87;3.40;;;16.70;87.00;;;19.61;55.47;100836.94;5035865;28;20218;-63
2023/08/08 03:52:13;;;;;;;5.13;3.07;;;16.70;87.80;;;19.63;55.88;100826.03;5036371;28;20220;-63
2023/08/08 03:54:40;;;;;;;3.87;2.00;;;16.70;87.10;;;19.66;55.80;100826.34;5036169;28;20239;-62
2023/08/08 03:57:09;;;;;;;6.00;3.20;;;16.70;87.10;;;19.68;55.71;100824.28;5035905;28;20199;-64
2023/08/08 03:59:36;;;;;;;4.27;3.10;;;16.80;87.00;;;19.72;55.61;100824.63;5035867;28;20234;-64
2023/08/08 04:02:04;;;;;;;6.07;2.77;;;16.80;87.20;;;19.75;55.55;100832.19;5036152;28;20614;-62
2023/08/08 04:04:32;;;;;;;3.10;2.80;;;16.80;87.00;;;19.79;55.65;100817.31;5035914;28;20194;-62
2023/08/08 04:06:59;;;;;;;3.60;2.80;;;16.80;87.00;;;19.82;55.35;100816.84;5035849;28;20218;-62
2023/08/08 04:09:26;;;;;;;4.30;2.60;;;16.90;86.90;;;19.85;55.19;100816.41;5035756;28;20206;-65
2023/08/08 04:11:53;;;;;;;3.27;2.83;;;16.90;86.90;;;19.87;55.53;100824.97;5035856;28;20256;-61
2023/08/08 04:14:21;;;;;;;3.33;2.80;;;16.90;86.90;;;19.88;55.10;100822.06;5035971;28;20664;-63
2023/08/08 04:16:48;;;;;;;7.73;3.00;;;16.90;86.90;;;19.88;55.38;100824.75;5035941;28;20241;-61
2023/08/08 04:19:15;;;;;;;4.40;3.40;;;16.90;87.00;;;19.88;55.50;100816.72;5035285;28;20210;-61
2023/08/08 04:21:42;;;;;;;3.00;2.80;;;16.90;87.10;;;19.92;55.41;100817.09;5034220;28;20517;-63
2023/08/08 04:24:10;;;;;;;6.07;3.27;;;17.00;87.30;;;19.94;55.41;100818.47;5035135;28;20193;-63
2023/08/08 04:26:36;;;;;;;4.90;3.63;;;17.00;87.20;;;19.92;55.54;100820.53;5035678;28;20190;-63
2023/08/08 04:29:03;;;;;;;8.47;5.30;;;17.00;87.30;;;19.93;55.48;100813.34;5035267;28;20197;-64
2023/08/08 04:31:32;;;;;;;4.07;3.00;;;17.00;87.20;;;19.96;55.82;100813.72;5035238;28;20219;-63
2023/08/08 04:34:00;;;;;;;6.10;3.07;;;17.00;87.30;;;19.96;55.38;100807.53;5035155;28;20200;-65
2023/08/08 04:36:29;;;;;;;3.27;2.83;;;17.10;87.10;;;19.98;55.34;100806.25;5034987;28;20598;-63
2023/08/08 04:38:56;;;;;;;5.20;3.10;;;17.10;87.10;;;19.99;55.44;100813.22;5035384;28;20194;-63
2023/08/08 04:41:23;;;;;;;8.87;4.03;;;17.10;87.30;;;19.98;55.45;100806.25;5035137;28;20191;-64
2023/08/08 04:43:50;;;;;;;7.20;3.00;;;17.10;87.30;;;20.01;55.63;100811.16;5034889;28;20750;-63
2023/08/08 04:46:17;;;;;;;7.10;3.10;;;17.10;87.10;;;20.03;55.92;100817.06;5035038;28;20226;-63
2023/08/08 04:48:46;;;;;;;2.97;2.73;;;17.10;87.10;;;20.05;55.40;100814.16;5035196;28;20636;-64
2023/08/08 04:51:13;;;;;;;6.73;3.93;;;17.20;87.10;;;20.09;55.43;100802.75;5034684;28;20571;-63
2023/08/08 04:53:40;;;;;;;4.83;3.13;;;17.20;87.30;;;20.18;55.41;100801.34;5035138;28;20652;-63
2023/08/08 04:56:07;;;;;;;4.07;3.30;;;17.20;87.20;;;20.22;55.19;100810.56;5034796;28;20278;-64
2023/08/08 04:58:34;;;;;;;3.67;3.27;;;17.20;87.30;;;20.28;55.06;100808.00;5034826;28;20191;-64
2023/08/08 05:01:01;;;;;;;4.43;3.47;;;17.30;87.20;;;20.28;54.95;100799.97;5034455;28;20244;-63
2023/08/08 05:03:28;;;;;;;4.93;3.43;;;17.30;87.00;;;20.29;55.23;100804.25;5034869;28;20273;-63
2023/08/08 05:05:58;;;;;;;5.90;2.90;;;17.30;87.00;;;20.30;54.99;100803.22;5034911;28;20202;-63
2023/08/08 05:08:26;;;;;;;4.43;3.27;;;17.30;86.90;;;20.29;55.43;100798.91;5033602;28;20202;-64
2023/08/08 05:10:53;;;;;;;4.83;3.67;;;17.40;86.90;;;20.28;55.49;100799.97;5034433;28;20219;-65
2023/08/08 05:13:20;;;;;;;6.10;4.00;;;17.40;86.80;;;20.29;55.43;100794.38;5034510;28;20194;-63
2023/08/08 05:15:47;;;;;;;5.70;3.20;;;17.40;86.90;;;20.32;55.48;100795.78;5034463;28;20197;-64
2023/08/08 05:18:14;;;;;;;4.43;2.67;;;17.40;86.80;;;20.35;55.34;100795.31;5034415;28;20225;-63
2023/08/08 05:20:41;;;;;;;5.00;3.00;;;17.40;86.70;;;20.37;55.15;100801.22;5033934;28;20214;-64
2023/08/08 05:23:09;;;;;;;4.77;3.20;;;17.40;86.70;;;20.39;54.86;100788.44;5034495;28;20191;-63
2023/08/08 05:25:36;;;;;;;4.47;3.20;;;17.40;86.70;;;20.39;54.72;100796.44;5034111;28;20198;-64
2023/08/08 05:28:04;;;;;;;4.27;3.23;;;17.40;86.60;;;20.36;54.91;100791.56;5033972;28;20194;-64
2023/08/08 05:30:32;;;;;;;6.63;3.30;;;17.40;86.60;;;20.34;54.95;100796.34;5032586;28;20264;-62
2023/08/08 05:32:59;;;;;;;5.23;3.13;;;17.40;86.60;;;20.33;55.09;100800.88;5033860;28;20198;-64
2023/08/08 05:35:26;;;;;;;5.80;3.40;;;17.40;86.80;;;20.33;54.94;100792.03;5033445;28;20470;-64
2023/08/08 05:37:53;;;;;;;5.10;2.87;;;17.40;86.90;;;20.33;55.49;100786.69;5019755;28;20294;-63
2023/08/08 05:40:21;;;;;;;4.07;3.00;;;17.40;86.80;;;20.31;55.14;100794.13;5021934;28;20210;-61
2023/08/08 05:42:48;;;;;;;6.80;3.07;;;17.40;86.80;;;20.29;55.53;100788.22;5033836;28;20655;-61
2023/08/08 05:45:15;;;;;;;5.33;3.10;;;17.40;86.60;;;20.30;55.56;100798.66;5022065;28;20675;-62
2023/08/08 05:47:43;;;;;;;4.23;2.87;;;17.40;86.70;;;20.30;55.23;100808.56;5013999;28;20652;-63
2023/08/08 05:50:10;;;;;;;5.10;2.67;;;17.50;86.80;;;20.32;55.30;100790.41;5020380;28;20214;-63
2023/08/08 05:52:37;;;;;;;5.57;2.90;;;17.50;86.90;;;20.32;55.50;100787.75;5033490;28;20220;-64
2023/08/08 05:55:05;;;;;;;4.57;3.10;;;17.40;86.60;;;20.30;55.01;100790.63;5033600;28;20566;-63
2023/08/08 05:57:34;;;;;;;4.83;3.53;;;17.40;86.60;;;20.28;55.60;100783.94;5032088;28;20206;-60
2023/08/08 06:00:01;;;;;;;5.20;2.40;;;17.40;86.70;;;20.30;55.18;100795.19;5032657;28;20220;-63
2023/08/08 06:02:31;;;;;;;4.63;2.90;;;17.40;86.70;;;20.33;55.15;100789.34;5032569;28;20195;-63
2023/08/08 06:04:58;;;;;;;4.17;2.97;;;17.40;86.90;;;20.40;55.62;100798.06;5033323;28;20190;-62
2023/08/08 06:07:25;;;;;;;5.13;2.83;;;17.50;87.20;;;20.48;55.15;100795.03;5033351;28;20201;-62
2023/08/08 06:09:52;;;;;;;5.67;2.70;;;17.50;87.20;;;20.55;54.88;100798.38;5033248;28;20755;-62
2023/08/08 06:12:19;;;;;;;4.97;2.97;;;17.50;86.90;;;20.57;54.86;100798.94;5033216;28;20293;-62
2023/08/08 06:14:48;;;;;;;3.73;2.70;;;17.60;86.80;;;20.61;54.98;100794.75;5033484;28;20205;-64
2023/08/08 06:17:15;;;;;;;7.17;2.90;;;17.60;86.50;;;20.66;54.47;100792.16;5033416;28;20687;-64
2023/08/08 06:19:42;;;;;;;6.90;2.57;;;17.60;86.40;;;20.73;54.58;100782.94;5032915;28;20220;-64
2023/08/08 06:22:09;;;;;;;7.27;3.03;;;17.70;86.40;;;20.80;54.75;100782.81;5033432;28;20193;-64
2023/08/08 06:24:36;;;;;;;5.17;2.80;;;17.80;86.20;;;20.82;53.89;100778.03;5033334;28;20216;-62
2023/08/08 06:27:03;;;;;;;5.67;2.53;;;17.80;85.80;;;20.85;53.73;100790.91;5033060;28;20632;-63
2023/08/08 06:29:30;;;;;;;4.33;2.53;;;17.90;85.60;;;20.90;54.09;100791.00;5032615;28;20866;-63
2023/08/08 06:31:59;;;;;;;4.53;2.53;;;17.90;85.40;;;20.92;53.76;100794.22;5033074;28;20210;-63
2023/08/08 06:34:27;;;;;;;5.97;2.60;;;17.90;84.90;;;21.00;53.86;100791.16;5032959;28;20538;-63
2023/08/08 06:36:54;;;;;;;4.50;2.50;;;18.00;85.00;;;21.07;53.53;100791.03;5032968;28;20190;-63
2023/08/08 06:39:21;;;;;;;4.50;2.40;;;18.00;84.70;;;21.13;53.06;100788.22;5033004;28;20289;-63
2023/08/08 06:42:07;;;;;;;5.47;2.70;;;18.10;84.60;;;21.21;52.96;100784.31;5033040;28;20233;-63
2023/08/08 06:44:53;;;;;;;3.70;2.20;;;18.10;84.40;;;21.27;53.07;100788.72;5032996;28;20677;-61
2023/08/08 06:47:21;;;;;;;3.57;2.40;;;18.20;84.30;;;21.32;52.40;100796.84;5036495;28;20195;-63
2023/08/08 06:49:49;;;;;;;2.63;2.10;;;18.20;83.70;;;21.32;52.10;100781.56;5036206;28;20288;-64
2023/08/08 06:52:16;;;;;;;6.17;2.43;;;18.30;83.40;;;21.34;52.44;100789.38;5036622;28;20206;-63
2023/08/08 06:54:43;;;;;;;4.53;2.97;;;18.30;83.00;;;21.33;51.92;100791.22;5036895;28;20194;-62
2023/08/08 06:57:10;;;;;;;4.17;2.20;;;18.40;83.00;;;21.39;52.27;100792.13;5036431;28;20290;-62
2023/08/08 06:59:37;;;;;;;3.93;2.43;;;18.40;82.70;;;21.49;51.84;100797.63;5036173;28;20309;-64
2023/08/08 07:02:05;;;;;;;3.13;1.90;;;18.40;82.80;;;21.61;51.75;100798.34;5036781;28;20196;-64
2023/08/08 07:04:34;;;;;;;4.03;2.27;;;18.50;82.30;;;21.71;50.90;100795.81;5036869;28;20623;-63
2023/08/08 07:07:01;;;;;;;4.60;2.50;;;18.50;81.70;;;21.79;50.60;100787.38;5036501;28;20229;-65
2023/08/08 07:09:28;;;;;;;3.93;1.90;;;18.60;81.60;;;21.87;51.04;100778.91;5034697;28;20737;-63
2023/08/08 07:11:55;;;;;;;2.47;1.90;;;18.70;81.50;;;21.95;50.76;100788.41;5036147;28;20256;-63
2023/08/08 07:14:22;;;;;;;5.23;2.07;;;18.80;81.30;;;21.99;50.02;100781.47;5037110;28;20534;-63
2023/08/08 07:16:49;;;;;;;5.20;2.27;;;18.90;80.90;;;22.02;49.93;100787.19;5036381;28;20191;-63
2023/08/08 07:19:16;;;;;;;7.03;3.13;;;18.90;80.20;;;22.05;50.44;100796.59;5036394;28;20380;-63
2023/08/08 07:21:45;;;;;;;5.30;2.03;;;19.00;80.40;;;22.06;49.81;100782.94;5036211;28;20198;-63
2023/08/08 07:24:12;;;;;;;6.03;2.27;;;19.00;80.20;;;22.11;49.99;100790.22;5036693;28;20299;-62
2023/08/08 07:26:39;;;;;;;3.60;1.93;;;19.00;80.00;;;22.17;49.49;100779.34;5037446;28;20191;-63
2023/08/08 07:29:06;;;;;;;3.60;1.67;;;19.10;79.60;;;22.22;48.87;100775.91;5035780;28;20305;-63
2023/08/08 07:31:34;;;;;;;3.50;1.90;;;19.10;78.80;;;22.33;48.63;100769.59;5036322;28;20206;-63
2023/08/08 07:34:01;;;;;;;2.13;1.47;;;19.20;78.70;;;22.50;48.44;100772.19;5036143;28;20194;-63
2023/08/08 07:36:28;;;;;;;2.87;1.90;;;19.30;78.50;;;22.65;47.91;100764.34;5035030;28;20218;-63
2023/08/08 07:38:59;;;;;;;5.10;1.70;;;19.40;77.40;;;22.65;47.18;100762.47;5035811;28;20260;-61
2023/08/08 07:41:29;;;;;;;4.50;1.97;;;19.40;76.20;;;22.53;46.97;100756.41;5036001;28;20198;-63
2023/08/08 07:43:56;;;;;;;1.90;1.50;;;19.50;76.30;;;22.39;47.76;100755.19;5035936;28;20208;-63
2023/08/08 07:46:24;;;;;;;4.63;2.17;;;19.50;76.70;;;22.28;47.70;100766.84;5035848;28;20194;-63
2023/08/08 07:48:51;;;;;;;3.57;2.03;;;19.40;76.70;;;22.22;48.04;100778.59;5034973;28;20539;-62
2023/08/08 07:51:18;;;;;;;2.77;1.43;;;19.40;77.10;;;22.22;48.51;100770.53;5035355;28;20614;-61
2023/08/08 07:53:46;;;;;;;3.63;1.80;;;19.30;77.20;;;22.23;48.45;100766.78;5034276;28;20549;-59
2023/08/08 07:56:14;;;;;;;4.23;2.03;;;19.30;77.20;;;22.25;48.23;100760.09;5035046;28;20209;-63
2023/08/08 07:58:44;;;;;;;3.33;1.73;;;19.30;77.10;;;22.25;48.47;100764.66;5033381;28;20659;-62
2023/08/08 08:01:13;;;;;;;5.93;1.63;;;19.30;77.40;;;22.26;48.70;100760.91;5028116;28;20215;-63
2023/08/08 08:03:41;;;;;;;5.00;1.80;;;19.30;77.70;;;22.33;48.49;100764.22;5034575;28;20213;-62
2023/08/08 08:06:09;;;;;;;4.10;1.70;;;19.30;78.00;;;22.46;48.40;100761.16;5029725;28;20186;-63
2023/08/08 08:08:36;;;;;;;2.27;1.50;;;19.30;77.80;;;22.57;47.94;100760.19;5031349;28;20223;-63
2023/08/08 08:11:03;;;;;;;5.70;1.73;;;19.40;77.70;;;22.67;47.70;100760.34;5033884;28;20233;-63
2023/08/08 08:13:32;;;;;;;5.23;1.67;;;19.40;77.20;;;22.75;47.50;100754.50;5030180;28;20313;-63
2023/08/08 08:15:59;;;;;;;7.90;2.03;;;19.50;77.20;;;22.80;47.55;100756.41;5019373;28;20278;-63
2023/08/08 08:18:26;;;;;;;2.67;1.57;;;19.60;76.90;;;22.89;47.38;100758.38;5035134;28;20218;-63
2023/08/08 08:20:53;;;;;;;4.53;1.70;;;19.70;76.70;;;22.98;46.89;100749.88;5031769;28;20214;-63
2023/08/08 08:23:24;;;;;;;3.50;1.60;;;19.70;75.70;;;23.06;46.13;100752.09;5030765;28;20605;-66
2023/08/08 08:25:52;;;;;;;2.03;1.60;;;19.80;75.60;;;23.14;45.96;100747.06;5009846;28;20277;-64
2023/08/08 08:28:19;;;;;;;2.53;1.40;;;19.80;74.80;;;23.32;45.52;100743.97;5029986;28;20195;-61
2023/08/08 08:30:47;;;;;;;4.60;1.67;;;19.90;74.60;;;23.47;44.60;100754.03;5030613;28;20649;-63
2023/08/08 08:33:16;;;;;;;2.67;1.13;;;20.00;72.90;;;23.56;44.21;100742.53;5036904;28;20206;-60
2023/08/08 08:35:54;;;;;;;3.00;1.47;;;20.10;72.80;;;24.05;43.53;100753.84;5029179;28;20704;-63
2023/08/08 08:38:21;;;;;;;2.47;1.40;;;20.30;72.00;;;24.84;41.99;100748.16;5032898;28;20191;-62
2023/08/08 08:40:52;;;;;;;3.00;1.47;;;20.60;71.20;;;25.78;41.46;100740.25;5031672;28;20221;-60
2023/08/08 08:43:19;;;;;;;3.07;1.50;;;21.00;71.60;;;27.08;37.60;100723.59;5023282;28;20226;-60
2023/08/08 08:45:54;;;;;;;2.53;1.53;;;21.60;67.60;;;27.84;36.47;100727.16;5028744;28;20302;-62
2023/08/08 08:48:22;;;;;;;5.70;1.40;;;22.30;65.80;;;28.55;34.99;100728.94;5032525;28;20205;-60
2023/08/08 08:50:50;;;;;;;3.97;1.77;;;22.90;64.80;;;28.57;34.84;100724.03;5033388;28;20269;-60
2023/08/08 08:53:18;;;;;;;2.57;1.60;;;23.40;62.40;;;28.13;34.94;100733.31;5032318;28;20311;-61
2023/08/08 08:55:46;;;;;;;3.13;1.73;;;23.70;60.60;;;27.58;35.36;100725.00;5027979;28;20286;-60
2023/08/08 08:58:18;;;;;;;2.37;1.43;;;23.70;59.60;;;26.98;35.98;100723.69;5029566;28;20219;-60
2023/08/08 09:00:48;;;;;;;2.93;1.23;;;23.50;58.80;;;26.42;36.26;100729.47;5025293;28;20562;-59
2023/08/08 09:03:16;;;;;;;3.47;1.50;;;23.20;58.50;;;26.74;36.51;100729.78;5032220;28;20551;-61
2023/08/08 09:05:44;;;;;;;3.50;1.20;;;23.10;59.90;;;27.46;35.06;100722.72;5033001;28;20513;-59
2023/08/08 09:08:12;;;;;;;4.63;1.63;;;23.10;59.50;;;27.42;34.90;100721.69;5030507;28;20229;-60
2023/08/08 09:10:40;;;;;;;2.63;1.23;;;23.30;59.10;;;27.06;35.20;100723.06;5020357;28;20641;-61
2023/08/08 09:13:07;;;;;;;3.07;1.20;;;23.20;58.50;;;26.63;35.74;100727.44;5026275;28;20280;-61
2023/08/08 09:15:35;;;;;;;3.73;1.60;;;23.10;58.80;;;26.21;35.65;100733.38;5031283;28;20222;-61
2023/08/08 09:18:04;;;;;;;2.83;1.40;;;22.90;58.10;;;26.16;36.83;100725.28;5002977;28;20285;-62
2023/08/08 09:20:31;;;;;;;5.90;1.70;;;22.70;58.80;;;27.16;35.80;100720.28;5025467;28;20215;-63
2023/08/08 09:22:58;;;;;;;3.90;1.90;;;22.70;59.90;;;28.03;33.83;100721.78;5026599;28;20190;-62
2023/08/08 09:25:26;;;;;;;3.03;1.70;;;23.00;58.70;;;28.30;32.97;100726.59;5020199;28;20214;-63
2023/08/08 09:27:54;;;;;;;4.23;2.20;;;23.40;57.80;;;29.06;31.88;100728.97;5032682;28;20263;-62
2023/08/08 09:30:22;;;;;;;1.60;1.07;;;23.70;57.00;;;29.58;30.57;100709.56;5031011;28;20229;-61
2023/08/08 09:32:49;;;;;;;3.23;1.70;;;24.10;55.00;;;29.41;30.62;100709.34;5027028;28;20242;-61
2023/08/08 09:35:19;;;;;;;3.70;1.90;;;24.40;53.70;;;28.99;30.94;100704.13;5033991;28;20242;-64
2023/08/08 09:37:46;;;;;;;3.77;1.40;;;24.40;53.20;;;28.92;30.83;100699.09;5029578;28;20194;-63
2023/08/08 09:40:13;;;;;;;2.53;1.37;;;24.50;53.20;;;28.57;30.82;100700.47;5046730;28;20253;-62
2023/08/08 09:42:41;;;;;;;2.83;1.57;;;24.30;52.20;;;28.16;31.47;100702.97;5046723;28;20579;-63
2023/08/08 09:45:10;;;;;;;2.27;1.47;;;24.30;52.30;;;27.68;32.04;100704.06;5030763;28;20206;-61
2023/08/08 09:47:38;;;;;;;2.90;1.40;;;24.10;52.40;;;27.35;32.68;100691.44;5032073;28;20186;-62
2023/08/08 09:50:09;;;;;;;3.53;1.40;;;23.80;52.90;;;27.46;32.63;100710.00;5025474;28;20234;-60
2023/08/08 09:52:41;;;;;;;2.33;1.60;;;23.70;53.20;;;27.38;32.04;100693.59;5030630;28;20237;-62
2023/08/08 09:55:11;;;;;;;1.83;1.50;;;23.60;52.70;;;27.12;32.91;100701.13;5032999;28;20242;-62
2023/08/08 09:57:40;;;;;;;3.00;1.17;;;23.60;53.70;;;27.11;33.41;100694.09;5047941;28;20198;-62
2023/08/08 10:00:15;;;;;;;3.73;1.83;;;23.50;54.20;;;27.05;33.28;100686.34;5031615;28;20219;-62
2023/08/08 10:02:45;;;;;;;2.40;1.20;;;23.40;53.90;;;26.80;33.40;100682.75;5032096;28;20206;-62
2023/08/08 10:05:14;;;;;;;4.63;1.40;;;23.30;54.10;;;26.53;33.78;100693.19;5014054;28;20215;-62
2023/08/08 10:07:45;;;;;;;2.47;1.40;;;23.20;54.10;;;26.20;34.32;100699.34;5015871;28;20195;-62
2023/08/08 10:10:13;;;;;;;1.73;1.00;;;23.10;54.80;;;25.82;36.61;100713.53;5022261;28;20214;-62
2023/08/08 10:12:42;;;;;;;3.27;1.40;;;22.80;58.00;;;25.37;38.34;100707.16;5032485;28;20210;-60
2023/08/08 10:15:10;;;;;;;2.20;1.33;;;22.70;59.40;;;25.08;39.20;100705.34;5032644;28;20191;-61